Edison, Ohio
Current Conditions -  °F | °C
As of 3:53 PM on Sunday 23 Nov 2014 (Local Time) from KMNN Reporting Station
Scattered Clouds Scattered Clouds  
Wind Chill: 60°   Ceiling: Unl
Heat Index: 60°   Visibility: 10mi
Dew Point: 43°   Wind: 10mph
Humidity: 53%   Direction: 140°SE
Pressure: 29.7"   Gusts: NA
Location:  40.56°N, 82.86°W
Report Text: KMNN 232053Z AUTO 14009KT 10SM SCT070 16/06 A2970 RMK AO2 SLP060 T01560061 56049 TSNO
Loading
Personal Weather Stations






























Interactive Weather Map New forecast layout! Learn more

10-Day Weather Forecast

Advertisements
Track Severe Weather on mobile